createdAt,value
2023-04-25T00:01:57.750Z,16.05
2023-04-25T00:04:24.742Z,16.06
2023-04-25T00:06:53.285Z,16.08
2023-04-25T00:09:20.078Z,16.08
2023-04-25T00:11:46.800Z,16.05
2023-04-25T00:14:13.655Z,16.10
2023-04-25T00:16:42.317Z,16.06
2023-04-25T00:19:10.610Z,16.05
2023-04-25T00:21:38.733Z,16.04
2023-04-25T00:24:05.899Z,16.01
2023-04-25T00:26:32.625Z,16.06
2023-04-25T00:28:59.594Z,16.03
2023-04-25T00:31:26.413Z,16.04
2023-04-25T00:33:54.099Z,16.04
2023-04-25T00:36:20.975Z,16.05
2023-04-25T00:38:47.698Z,16.04
2023-04-25T00:41:14.730Z,16.00
2023-04-25T00:43:42.391Z,16.08
2023-04-25T00:46:09.284Z,16.06
2023-04-25T00:48:36.057Z,16.06
2023-04-25T00:51:02.958Z,16.01
2023-04-25T00:53:31.127Z,15.98
2023-04-25T00:55:58.093Z,15.96
2023-04-25T00:58:25.487Z,15.97
2023-04-25T01:00:53.371Z,15.97
2023-04-25T01:03:21.501Z,15.97
2023-04-25T01:05:49.173Z,15.90
2023-04-25T01:08:16.132Z,15.97
2023-04-25T01:10:43.003Z,15.96
2023-04-25T01:13:09.812Z,15.98
2023-04-25T01:15:37.202Z,15.99
2023-04-25T01:18:06.603Z,15.97
2023-04-25T01:20:34.831Z,16.00
2023-04-25T01:23:04.065Z,16.04
2023-04-25T01:25:32.521Z,16.05
2023-04-25T01:27:59.800Z,16.05
2023-04-25T01:30:28.436Z,16.03
2023-04-25T01:33:00.380Z,16.04
2023-04-25T01:35:29.248Z,16.06
2023-04-25T01:37:55.994Z,16.12
2023-04-25T01:40:26.132Z,16.09
2023-04-25T01:42:53.274Z,16.06
2023-04-25T01:45:20.935Z,16.06
2023-04-25T01:47:50.649Z,16.04
2023-04-25T01:50:20.088Z,16.02
2023-04-25T01:52:47.079Z,16.03
2023-04-25T01:55:14.365Z,15.99
2023-04-25T01:57:50.651Z,15.99
2023-04-25T02:00:19.849Z,16.02
2023-04-25T02:02:46.684Z,16.06
2023-04-25T02:05:41.390Z,16.04
2023-04-25T02:08:11.462Z,16.03
2023-04-25T02:10:38.601Z,16.05
2023-04-25T02:13:14.648Z,16.02
2023-04-25T02:15:49.208Z,16.03
2023-04-25T02:18:18.728Z,16.06
2023-04-25T02:20:46.133Z,16.02
2023-04-25T02:23:13.456Z,16.00
2023-04-25T02:25:40.274Z,15.98
2023-04-25T02:28:07.091Z,16.05
2023-04-25T02:30:34.024Z,16.00
2023-04-25T02:33:00.928Z,16.00
2023-04-25T02:35:27.883Z,16.02
2023-04-25T02:37:55.728Z,16.03
2023-04-25T02:40:22.665Z,16.06
2023-04-25T02:42:49.508Z,16.07
2023-04-25T02:45:16.260Z,16.04
2023-04-25T02:47:42.972Z,16.05
2023-04-25T02:50:10.078Z,15.99
2023-04-25T02:52:37.204Z,15.99
2023-04-25T02:55:14.404Z,15.98
2023-04-25T02:57:41.572Z,15.96
2023-04-25T03:00:12.811Z,15.93
2023-04-25T03:02:39.794Z,15.89
2023-04-25T03:05:06.994Z,15.86
2023-04-25T03:07:34.250Z,15.86
2023-04-25T03:10:01.063Z,15.90
2023-04-25T03:12:30.447Z,15.91
2023-04-25T03:14:57.443Z,15.89
2023-04-25T03:17:24.191Z,15.89
2023-04-25T03:19:51.113Z,15.85
2023-04-25T03:22:18.144Z,15.78
2023-04-25T03:24:45.118Z,15.86
2023-04-25T03:27:11.838Z,15.82
2023-04-25T03:29:38.605Z,15.77
2023-04-25T03:32:06.456Z,15.77
2023-04-25T03:34:33.240Z,15.76
2023-04-25T03:37:01.104Z,15.70
2023-04-25T03:39:28.503Z,15.74
2023-04-25T03:41:56.645Z,15.72
2023-04-25T03:44:23.495Z,15.72
2023-04-25T03:46:50.427Z,15.75
2023-04-25T03:49:19.368Z,15.71
2023-04-25T03:52:03.375Z,15.75
2023-04-25T03:54:35.738Z,15.72
2023-04-25T03:57:22.879Z,15.69
2023-04-25T03:59:49.638Z,15.73
2023-04-25T04:02:16.909Z,15.71
2023-04-25T04:04:45.774Z,15.71
2023-04-25T04:07:13.479Z,15.71
2023-04-25T04:09:42.756Z,15.68
2023-04-25T04:12:15.136Z,15.66
2023-04-25T04:14:42.587Z,15.69
2023-04-25T04:17:10.627Z,15.63
2023-04-25T04:19:37.512Z,15.66
2023-04-25T04:22:09.994Z,15.68
2023-04-25T04:24:37.247Z,15.63
2023-04-25T04:27:07.238Z,15.70
2023-04-25T04:29:41.026Z,15.65
2023-04-25T04:32:26.647Z,15.62
2023-04-25T04:34:56.019Z,15.67
2023-04-25T04:37:24.321Z,15.65
2023-04-25T04:39:52.979Z,15.61
2023-04-25T04:42:31.444Z,15.66
2023-04-25T04:45:17.389Z,15.67
2023-04-25T04:48:03.172Z,15.65
2023-04-25T04:50:52.997Z,15.67
2023-04-25T04:53:25.685Z,15.70
2023-04-25T04:56:11.407Z,15.76
2023-04-25T04:59:08.175Z,15.73
2023-04-25T05:01:42.173Z,15.80
2023-04-25T05:04:35.293Z,15.79
2023-04-25T05:07:09.366Z,15.80
2023-04-25T05:10:09.207Z,15.78
2023-04-25T05:12:44.395Z,15.82
2023-04-25T05:15:32.833Z,15.79
2023-04-25T05:18:25.357Z,15.77
2023-04-25T05:21:06.194Z,15.81
2023-04-25T05:23:48.509Z,15.74
2023-04-25T05:26:44.633Z,15.77
2023-04-25T05:29:34.726Z,15.81
2023-04-25T05:32:09.605Z,15.84
2023-04-25T05:34:36.702Z,15.83
2023-04-25T05:37:06.631Z,15.86
2023-04-25T05:39:38.658Z,15.87
2023-04-25T05:42:15.966Z,15.91
2023-04-25T05:44:53.165Z,15.86
2023-04-25T05:47:46.190Z,15.82
2023-04-25T05:50:30.037Z,15.89
2023-04-25T05:53:03.935Z,15.91
2023-04-25T05:55:33.037Z,15.92
2023-04-25T05:58:02.456Z,15.94
2023-04-25T06:00:29.974Z,15.88
2023-04-25T06:02:57.241Z,15.91
2023-04-25T06:05:24.778Z,15.87
2023-04-25T06:07:52.125Z,15.92
2023-04-25T06:10:19.635Z,15.89
2023-04-25T06:12:46.385Z,15.96
2023-04-25T06:15:27.282Z,16.02
2023-04-25T06:17:55.778Z,16.01
2023-04-25T06:20:25.107Z,16.03
2023-04-25T06:22:53.735Z,15.97
2023-04-25T06:25:24.847Z,15.95
2023-04-25T06:27:51.682Z,15.95
2023-04-25T06:30:23.468Z,15.98
2023-04-25T06:32:56.875Z,16.06
2023-04-25T06:35:24.580Z,16.08
2023-04-25T06:37:51.304Z,16.06
2023-04-25T06:40:22.220Z,16.04
2023-04-25T06:42:49.252Z,16.06
2023-04-25T06:45:34.579Z,16.08
2023-04-25T06:48:01.545Z,16.06
2023-04-25T06:50:29.055Z,16.00
2023-04-25T06:52:56.043Z,16.06
2023-04-25T06:55:23.988Z,16.06
2023-04-25T06:58:08.320Z,16.13
2023-04-25T07:00:55.228Z,16.21
2023-04-25T07:03:25.442Z,16.30
2023-04-25T07:05:57.060Z,16.35
2023-04-25T07:08:25.156Z,16.39
2023-04-25T07:10:51.914Z,16.37
2023-04-25T07:13:18.789Z,16.33
2023-04-25T07:15:46.467Z,16.31
2023-04-25T07:18:13.700Z,16.31
2023-04-25T07:20:40.667Z,16.33
2023-04-25T07:23:07.773Z,16.30
2023-04-25T07:25:36.195Z,16.28
2023-04-25T07:28:03.769Z,16.34
2023-04-25T07:30:32.912Z,16.30
2023-04-25T07:33:04.237Z,16.27
2023-04-25T07:35:31.116Z,16.27
2023-04-25T07:37:58.055Z,16.26
2023-04-25T07:40:25.379Z,16.29
2023-04-25T07:42:57.581Z,16.26
2023-04-25T07:45:34.827Z,16.26
2023-04-25T07:48:02.626Z,16.31
2023-04-25T07:50:31.741Z,16.37
2023-04-25T07:52:58.791Z,16.49
2023-04-25T07:55:34.152Z,16.53
2023-04-25T07:58:15.284Z,16.65
2023-04-25T08:00:45.219Z,16.76
2023-04-25T08:03:35.300Z,16.84
2023-04-25T08:06:07.940Z,16.97
2023-04-25T08:08:41.635Z,17.04
2023-04-25T08:11:11.685Z,17.17
2023-04-25T08:13:38.592Z,17.29
2023-04-25T08:16:05.853Z,17.34
2023-04-25T08:18:33.226Z,17.41
2023-04-25T08:21:00.758Z,17.41
2023-04-25T08:23:27.698Z,17.44
2023-04-25T08:26:03.694Z,17.53
2023-04-25T08:28:38.623Z,17.52
2023-04-25T08:31:06.078Z,17.50
2023-04-25T08:33:41.000Z,17.56
2023-04-25T08:36:38.541Z,17.53
2023-04-25T08:39:16.372Z,17.56
2023-04-25T08:41:57.647Z,17.59
2023-04-25T08:44:25.771Z,17.55
2023-04-25T08:46:53.738Z,17.68
2023-04-25T08:49:33.159Z,17.73
2023-04-25T08:52:07.451Z,17.83
2023-04-25T08:54:38.428Z,17.81
2023-04-25T08:57:08.034Z,17.79
2023-04-25T08:59:38.569Z,17.85
2023-04-25T09:02:07.189Z,17.95
2023-04-25T09:04:34.508Z,17.93
2023-04-25T09:07:01.446Z,18.03
2023-04-25T09:09:30.664Z,18.02
2023-04-25T09:11:58.161Z,17.97
2023-04-25T09:14:27.103Z,17.98
2023-04-25T09:17:23.732Z,18.14
2023-04-25T09:19:54.210Z,18.09
2023-04-25T09:22:26.265Z,18.30
2023-04-25T09:24:53.805Z,18.39
2023-04-25T09:27:24.302Z,18.35
2023-04-25T09:30:01.698Z,18.43
2023-04-25T09:32:36.106Z,18.36
2023-04-25T09:35:03.277Z,18.33
2023-04-25T09:37:31.501Z,18.41
2023-04-25T09:40:07.267Z,18.41
2023-04-25T09:42:37.905Z,18.37
2023-04-25T09:45:05.106Z,18.41
2023-04-25T09:47:38.955Z,18.47
2023-04-25T09:50:16.511Z,18.59
2023-04-25T09:52:46.412Z,18.62
2023-04-25T09:55:19.744Z,18.60
2023-04-25T09:57:52.891Z,18.70
2023-04-25T10:00:20.763Z,18.77
2023-04-25T10:02:49.802Z,18.75
2023-04-25T10:05:36.775Z,18.85
2023-04-25T10:08:05.582Z,18.84
2023-04-25T10:10:37.100Z,18.92
2023-04-25T10:13:06.194Z,18.91
2023-04-25T10:15:40.031Z,18.97
2023-04-25T10:18:08.194Z,18.92
2023-04-25T10:20:35.346Z,18.94
2023-04-25T10:23:16.593Z,18.94
2023-04-25T10:25:44.061Z,18.96
2023-04-25T10:28:11.021Z,18.96
2023-04-25T10:30:38.040Z,18.95
2023-04-25T10:33:18.450Z,18.95
2023-04-25T10:35:46.243Z,18.93
2023-04-25T10:38:15.771Z,19.04
2023-04-25T10:40:42.754Z,18.97
2023-04-25T10:43:34.584Z,18.95
2023-04-25T10:46:01.821Z,18.88
2023-04-25T10:48:32.393Z,19.08
2023-04-25T10:51:09.285Z,19.06
2023-04-25T10:53:37.473Z,19.03
2023-04-25T10:56:21.341Z,18.89
2023-04-25T10:58:50.336Z,18.95
2023-04-25T11:01:25.495Z,18.96
2023-04-25T11:03:59.437Z,18.99
2023-04-25T11:06:33.543Z,19.09
2023-04-25T11:09:02.579Z,19.17
2023-04-25T11:11:30.060Z,19.06
2023-04-25T11:13:56.875Z,19.20
2023-04-25T11:16:28.254Z,19.18
2023-04-25T11:18:59.492Z,19.25
2023-04-25T11:21:30.061Z,19.28
2023-04-25T11:24:00.985Z,19.31
2023-04-25T11:26:27.731Z,19.34
2023-04-25T11:28:59.311Z,19.47
2023-04-25T11:31:26.486Z,19.45
2023-04-25T11:33:56.177Z,19.37
2023-04-25T11:36:25.244Z,19.50
2023-04-25T11:38:53.047Z,19.41
2023-04-25T11:41:21.374Z,19.45
2023-04-25T11:43:49.602Z,19.38
2023-04-25T11:46:17.176Z,19.33
2023-04-25T11:48:47.041Z,19.06
2023-04-25T11:51:14.678Z,18.91
2023-04-25T11:53:45.856Z,18.86
2023-04-25T11:56:13.133Z,19.00
2023-04-25T11:59:06.961Z,19.09
2023-04-25T12:01:36.522Z,19.06
2023-04-25T12:04:15.856Z,19.03
2023-04-25T12:06:44.532Z,19.04
2023-04-25T12:09:14.336Z,19.24
2023-04-25T12:11:45.141Z,19.20
2023-04-25T12:14:12.816Z,19.23
2023-04-25T12:16:47.523Z,19.29
2023-04-25T12:19:18.323Z,19.26
2023-04-25T12:21:57.249Z,19.37
2023-04-25T12:24:27.281Z,19.27
2023-04-25T12:27:00.194Z,19.29
2023-04-25T12:29:34.598Z,19.39
2023-04-25T12:32:08.464Z,19.42
2023-04-25T12:34:36.993Z,19.50
2023-04-25T12:37:03.836Z,19.63
2023-04-25T12:39:30.696Z,19.78
2023-04-25T12:41:57.515Z,19.78
2023-04-25T12:44:24.240Z,19.75
2023-04-25T12:46:51.177Z,19.66
2023-04-25T12:49:19.407Z,19.71
2023-04-25T12:51:46.547Z,19.63
2023-04-25T12:54:13.983Z,19.60
2023-04-25T12:56:41.805Z,19.57
2023-04-25T12:59:09.064Z,19.54
2023-04-25T13:01:36.647Z,19.55
2023-04-25T13:04:04.016Z,19.28
2023-04-25T13:06:31.959Z,19.24
2023-04-25T13:08:58.931Z,19.28
2023-04-25T13:11:25.720Z,19.08
2023-04-25T13:13:52.836Z,19.04
2023-04-25T13:16:22.111Z,19.02
2023-04-25T13:18:49.818Z,19.06
2023-04-25T13:21:19.651Z,19.10
2023-04-25T13:23:47.863Z,19.32
2023-04-25T13:26:14.753Z,19.32
2023-04-25T13:28:44.988Z,19.48
2023-04-25T13:31:12.273Z,19.58
2023-04-25T13:33:38.974Z,19.69
2023-04-25T13:36:06.840Z,19.77
2023-04-25T13:38:33.865Z,19.54
2023-04-25T13:41:02.048Z,19.38
2023-04-25T13:43:28.961Z,19.60
2023-04-25T13:45:55.926Z,19.77
2023-04-25T13:48:23.776Z,19.66
2023-04-25T13:50:50.687Z,19.31
2023-04-25T13:53:17.528Z,19.13
2023-04-25T13:55:44.450Z,19.10
2023-04-25T13:58:11.707Z,19.11
2023-04-25T14:00:40.441Z,19.28
2023-04-25T14:03:09.040Z,19.54
2023-04-25T14:05:39.178Z,19.63
2023-04-25T14:08:10.730Z,19.41
2023-04-25T14:10:38.157Z,19.10
2023-04-25T14:13:05.652Z,18.92
2023-04-25T14:15:36.058Z,18.52
2023-04-25T14:18:03.630Z,17.65
2023-04-25T14:20:30.870Z,16.52
2023-04-25T14:22:59.291Z,16.58
2023-04-25T14:25:26.741Z,15.96
2023-04-25T14:27:53.654Z,15.96
2023-04-25T14:30:22.050Z,16.02
2023-04-25T14:32:51.954Z,16.10
2023-04-25T14:35:19.452Z,16.28
2023-04-25T14:37:46.622Z,16.28
2023-04-25T14:40:16.310Z,16.35
2023-04-25T14:42:43.453Z,16.49
2023-04-25T14:45:10.606Z,16.30
2023-04-25T14:47:38.571Z,16.40
2023-04-25T14:50:09.587Z,16.47
2023-04-25T14:52:36.701Z,16.63
2023-04-25T14:55:06.363Z,16.65
2023-04-25T14:57:34.413Z,16.53
2023-04-25T15:00:02.009Z,16.23
2023-04-25T15:02:33.454Z,15.96
2023-04-25T15:05:01.369Z,15.84
2023-04-25T15:07:28.422Z,15.94
2023-04-25T15:09:56.996Z,16.10
2023-04-25T15:12:23.915Z,16.25
2023-04-25T15:14:50.979Z,16.35
2023-04-25T15:17:17.782Z,16.48
2023-04-25T15:19:44.601Z,16.62
2023-04-25T15:22:11.599Z,16.71
2023-04-25T15:24:38.534Z,16.78
2023-04-25T15:27:05.713Z,16.85
2023-04-25T15:29:32.418Z,16.92
2023-04-25T15:31:59.397Z,16.94
2023-04-25T15:34:26.262Z,16.97
2023-04-25T15:36:53.057Z,17.04
2023-04-25T15:39:21.011Z,17.04
2023-04-25T15:41:48.584Z,16.98
2023-04-25T15:44:15.357Z,16.95
2023-04-25T15:46:44.419Z,16.94
2023-04-25T15:49:11.289Z,16.94
2023-04-25T15:51:38.210Z,16.95
2023-04-25T15:54:05.867Z,16.88
2023-04-25T15:56:33.396Z,16.89
2023-04-25T15:59:00.166Z,16.84
2023-04-25T16:01:30.750Z,16.84
2023-04-25T16:04:01.465Z,16.80
2023-04-25T16:06:28.648Z,16.73
2023-04-25T16:08:55.637Z,16.67
2023-04-25T16:11:22.771Z,16.63
2023-04-25T16:13:50.304Z,16.54
2023-04-25T16:16:17.321Z,16.51
2023-04-25T16:18:44.088Z,16.57
2023-04-25T16:21:17.054Z,16.55
2023-04-25T16:23:44.175Z,16.59
2023-04-25T16:26:10.940Z,16.57
2023-04-25T16:28:37.857Z,16.44
2023-04-25T16:31:04.851Z,16.44
2023-04-25T16:33:35.421Z,16.43
2023-04-25T16:36:02.265Z,16.45
2023-04-25T16:38:29.037Z,16.48
2023-04-25T16:40:55.858Z,16.52
2023-04-25T16:43:23.083Z,16.51
2023-04-25T16:45:49.934Z,16.50
2023-04-25T16:48:19.309Z,16.52
2023-04-25T16:50:46.161Z,16.53
2023-04-25T16:53:12.859Z,16.50
2023-04-25T16:55:39.673Z,16.51
2023-04-25T16:58:08.743Z,16.52
2023-04-25T17:00:36.982Z,16.53
2023-04-25T17:03:04.142Z,16.46
2023-04-25T17:05:31.036Z,16.42
2023-04-25T17:07:57.765Z,16.29
2023-04-25T17:10:24.565Z,15.97
2023-04-25T17:12:51.670Z,15.72
2023-04-25T17:15:18.489Z,15.63
2023-04-25T17:17:45.419Z,15.70
2023-04-25T17:20:14.042Z,15.72
2023-04-25T17:22:41.327Z,15.77
2023-04-25T17:25:09.365Z,15.76
2023-04-25T17:27:36.784Z,15.73
2023-04-25T17:30:05.874Z,15.71
2023-04-25T17:32:32.634Z,15.75
2023-04-25T17:35:00.340Z,15.85
2023-04-25T17:37:28.712Z,15.90
2023-04-25T17:39:55.577Z,15.92
2023-04-25T17:42:22.538Z,15.95
2023-04-25T17:44:49.578Z,15.94
2023-04-25T17:47:17.085Z,15.95
2023-04-25T17:49:43.929Z,15.94
2023-04-25T17:52:11.005Z,15.93
2023-04-25T17:54:37.942Z,15.75
2023-04-25T17:57:04.918Z,15.61
2023-04-25T17:59:31.824Z,15.54
2023-04-25T18:02:00.069Z,15.30
2023-04-25T18:04:27.260Z,15.36
2023-04-25T18:06:54.156Z,15.37
2023-04-25T18:09:23.593Z,15.34
2023-04-25T18:11:53.130Z,15.23
2023-04-25T18:14:21.447Z,15.23
2023-04-25T18:16:51.554Z,15.24
2023-04-25T18:19:21.848Z,15.28
2023-04-25T18:21:49.565Z,15.27
2023-04-25T18:24:21.225Z,15.25
2023-04-25T18:26:49.006Z,15.13
2023-04-25T18:29:31.330Z,15.08
2023-04-25T18:31:59.716Z,14.99
2023-04-25T18:34:27.455Z,14.91
2023-04-25T18:36:56.314Z,14.79
2023-04-25T18:39:24.438Z,14.78
2023-04-25T18:41:59.330Z,14.73
2023-04-25T18:44:30.918Z,14.81
2023-04-25T18:46:57.668Z,14.81
2023-04-25T18:49:24.706Z,14.83
2023-04-25T18:51:54.803Z,14.78
2023-04-25T18:54:21.873Z,14.74
2023-04-25T18:56:48.774Z,14.50
2023-04-25T18:59:16.831Z,14.25
2023-04-25T19:01:43.964Z,14.23
2023-04-25T19:04:11.100Z,14.28
2023-04-25T19:06:38.051Z,14.24
2023-04-25T19:09:04.926Z,14.19
2023-04-25T19:11:34.901Z,14.24
2023-04-25T19:14:01.862Z,13.90
2023-04-25T19:16:28.739Z,13.82
2023-04-25T19:18:56.885Z,13.87
2023-04-25T19:21:23.830Z,13.98
2023-04-25T19:23:54.335Z,14.06
2023-04-25T19:26:22.253Z,14.10
2023-04-25T19:29:14.659Z,14.11
2023-04-25T19:31:44.151Z,14.04
2023-04-25T19:34:12.088Z,13.91
2023-04-25T19:36:40.253Z,13.89
2023-04-25T19:39:07.695Z,13.92
2023-04-25T19:41:36.681Z,13.74
2023-04-25T19:44:08.694Z,13.50
2023-04-25T19:46:37.074Z,13.39
2023-04-25T19:49:09.018Z,13.11
2023-04-25T19:51:37.638Z,13.15
2023-04-25T19:54:04.811Z,13.34
2023-04-25T19:56:31.930Z,13.40
2023-04-25T19:58:58.731Z,13.22
2023-04-25T20:01:26.432Z,12.95
2023-04-25T20:03:53.880Z,12.92
2023-04-25T20:46:52.513Z,13.19
2023-04-25T20:49:19.486Z,13.25
2023-04-25T20:51:46.522Z,13.25
2023-04-25T20:54:13.666Z,13.17
2023-04-25T20:56:40.528Z,13.08
2023-04-25T20:59:07.366Z,13.08
2023-04-25T21:01:34.599Z,13.07
2023-04-25T21:04:01.905Z,13.15
2023-04-25T21:06:29.657Z,13.22
2023-04-25T21:08:56.562Z,13.20
2023-04-25T21:11:23.813Z,13.18
2023-04-25T21:13:51.340Z,13.13
2023-04-25T21:16:19.326Z,13.09
2023-04-25T21:18:46.189Z,13.15
2023-04-25T21:21:12.998Z,13.18
2023-04-25T21:23:39.774Z,13.19
2023-04-25T21:26:06.521Z,13.05
2023-04-25T21:28:33.517Z,12.98
2023-04-25T21:31:00.462Z,12.79
2023-04-25T21:33:27.293Z,12.85
2023-04-25T21:35:54.052Z,12.92
2023-04-25T21:38:20.864Z,12.83
2023-04-25T21:40:47.612Z,12.79
2023-04-25T21:43:14.388Z,12.71
2023-04-25T21:46:02.090Z,12.69
2023-04-25T21:48:28.360Z,12.73
2023-04-25T21:50:56.252Z,12.76
2023-04-25T21:53:23.061Z,12.62
2023-04-25T21:55:49.782Z,12.56
2023-04-25T21:58:16.617Z,12.54
2023-04-25T22:00:44.423Z,12.53
2023-04-25T22:03:11.493Z,12.57
2023-04-25T22:05:38.589Z,12.65
2023-04-25T22:08:05.405Z,12.68
2023-04-25T22:10:32.130Z,12.54
2023-04-25T22:12:59.055Z,12.44
2023-04-25T22:15:26.439Z,12.46
2023-04-25T22:17:57.820Z,12.53
2023-04-25T22:20:26.714Z,12.24
2023-04-25T22:22:54.754Z,12.22
2023-04-25T22:25:22.257Z,12.30
2023-04-25T22:27:49.515Z,12.31
2023-04-25T22:30:16.374Z,12.19
2023-04-25T22:32:43.442Z,12.11
2023-04-25T22:35:10.733Z,12.03
2023-04-25T22:37:37.869Z,11.95
2023-04-25T22:40:09.255Z,12.00
2023-04-25T22:42:43.250Z,11.99
2023-04-25T22:45:11.049Z,12.00
2023-04-25T22:47:38.793Z,11.95
2023-04-25T22:50:08.421Z,12.01
2023-04-25T22:52:35.264Z,12.04
2023-04-25T22:55:05.206Z,12.04
2023-04-25T22:57:32.110Z,12.05
2023-04-25T22:59:59.027Z,12.10
2023-04-25T23:02:26.191Z,12.19
2023-04-25T23:04:54.198Z,12.24
2023-04-25T23:07:21.079Z,12.26
2023-04-25T23:09:47.814Z,12.19
2023-04-25T23:12:18.112Z,12.12
2023-04-25T23:14:50.035Z,12.03
2023-04-25T23:17:16.749Z,12.03
2023-04-25T23:19:43.440Z,12.00
2023-04-25T23:22:10.188Z,11.92
2023-04-25T23:24:40.524Z,11.81
2023-04-25T23:27:07.976Z,11.71
2023-04-25T23:29:34.829Z,11.59
2023-04-25T23:32:02.035Z,11.47
2023-04-25T23:34:32.399Z,11.50
2023-04-25T23:37:01.767Z,11.44
2023-04-25T23:39:28.632Z,11.49
2023-04-25T23:41:55.893Z,11.54
2023-04-25T23:44:22.698Z,11.64
2023-04-25T23:46:50.062Z,11.82
2023-04-25T23:49:16.874Z,11.92
2023-04-25T23:51:43.575Z,11.97
2023-04-25T23:54:10.329Z,11.96
2023-04-25T23:56:37.052Z,12.02
2023-04-25T23:59:04.018Z,12.09
